F/V Judine — FPMI — position and weather

sailwx.info

Track history (hours):
 
Tides and Currents Weather Stations Pressure Air Temp Water Temp Dewpoint Dewpoint Depression Visibility Wind Speed Wind Dir Waves Ship Positions

F/V Judine

Last reported at 2017-Sep-20 07:00 UTC. Time now 2017-Sep-21 05:26 UTC.
Position N 47°48' W 004°17'.

Length 22 m.

Type: Fishing. MMSI: 227577000.

Date/timePositionNaut miles runAvg speedWind from/ knotsBaromVisibWave heightAir tempDewpointWater temp
2017-Sep-20 07:00N 47°48' W 004°17'1 0.0
2017-Sep-18 09:53N 47°47' W 004°18'4 1.9
2017-Sep-18 07:53N 47°45' W 004°22'0 0.1
2017-Sep-18 06:48N 47°45' W 004°22'2 1.2
2017-Sep-18 05:10N 47°46' W 004°24'2 5.2
2017-Sep-18 04:48N 47°47' W 004°26'4 5.3
2017-Sep-18 04:03N 47°50' W 004°30'1 5.3
2017-Sep-18 03:48N 47°51' W 004°32'2 5.2
2017-Sep-18 03:30N 47°52' W 004°33'3 5.5
2017-Sep-18 03:00N 47°54' W 004°36'3 5.7
2017-Sep-18 02:30N 47°56' W 004°39'3 5.9
2017-Sep-18 02:00N 47°58' W 004°42'3 6.3
2017-Sep-18 01:30N 48°01' W 004°46'3 6.9
2017-Sep-18 01:01N 48°04' W 004°46'4 7.2
2017-Sep-18 00:31N 48°08' W 004°47'4 7.4
2017-Sep-18 00:00N 48°11' W 004°48'4 7.3
2017-Sep-17 23:30N 48°15' W 004°49'4 7.4
2017-Sep-17 23:01N 48°18' W 004°48'3 5.6
2017-Sep-17 22:30N 48°21' W 004°48'3 5.9
2017-Sep-17 22:00N 48°24' W 004°49'4 7.5
2017-Sep-17 21:30N 48°28' W 004°50'4 8.5
2017-Sep-17 21:00N 48°32' W 004°50'5 9.4
2017-Sep-17 20:30N 48°37' W 004°49'5 9.9
2017-Sep-17 20:00N 48°42' W 004°48'510.0
2017-Sep-17 19:30N 48°47' W 004°46'  
2017-Sep-10 19:19N 48°51' W 004°52'1 4.3
2017-Sep-10 19:00N 48°49' W 004°52'2 4.6
2017-Sep-10 18:30N 48°47' W 004°51'2 4.9
2017-Sep-10 18:00N 48°45' W 004°51'1 2.6
2017-Sep-10 17:30N 48°43' W 004°51'1 2.5
2017-Sep-10 17:00N 48°42' W 004°52'2 4.0
2017-Sep-10 16:30N 48°40' W 004°51'2 4.6
2017-Sep-10 16:00N 48°38' W 004°51'3 5.3
2017-Sep-10 15:30N 48°35' W 004°51'4 7.0
2017-Sep-10 15:01N 48°32' W 004°51'8 8.2
2017-Sep-10 14:00N 48°24' W 004°49'510.0
2017-Sep-10 13:30N 48°19' W 004°48'4 8.1
2017-Sep-10 13:01N 48°15' W 004°47'4 8.0
2017-Sep-10 12:30N 48°11' W 004°47'4 8.0
2017-Sep-10 12:00N 48°07' W 004°47'4 7.8
2017-Sep-10 11:30N 48°03' W 004°47'4 8.3
2017-Sep-10 11:00N 47°60' W 004°43'4 7.9
2017-Sep-10 10:29N 47°57' W 004°38'4 7.4
2017-Sep-10 10:01N 47°54' W 004°35'8 7.2
2017-Sep-10 08:58N 47°49' W 004°27'6 5.5
2017-Sep-10 07:49N 47°47' W 004°18'  
Track history (hours):
 
Tides and Currents Weather Stations Pressure Air Temp Water Temp Dewpoint Dewpoint Depression Visibility Wind Speed Wind Dir Waves Ship Positions

F/V Judine

Last reported at 2017-Sep-20 07:00 UTC. Time now 2017-Sep-21 05:26 UTC.
Position N 47°48' W 004°17'.

Length 22 m.

Type: Fishing. MMSI: 227577000.

Date/timePositionNaut miles runAvg speedWind from/ knotsBaromVisibWave heightAir tempDewpointWater temp
2017-Sep-20 07:00N 47°48' W 004°17'1 0.0
2017-Sep-18 09:53N 47°47' W 004°18'4 1.9
2017-Sep-18 07:53N 47°45' W 004°22'0 0.1
2017-Sep-18 06:48N 47°45' W 004°22'2 1.2
2017-Sep-18 05:10N 47°46' W 004°24'2 5.2
2017-Sep-18 04:48N 47°47' W 004°26'4 5.3
2017-Sep-18 04:03N 47°50' W 004°30'1 5.3
2017-Sep-18 03:48N 47°51' W 004°32'2 5.2
2017-Sep-18 03:30N 47°52' W 004°33'3 5.5
2017-Sep-18 03:00N 47°54' W 004°36'3 5.7
2017-Sep-18 02:30N 47°56' W 004°39'3 5.9
2017-Sep-18 02:00N 47°58' W 004°42'3 6.3
2017-Sep-18 01:30N 48°01' W 004°46'3 6.9
2017-Sep-18 01:01N 48°04' W 004°46'4 7.2
2017-Sep-18 00:31N 48°08' W 004°47'4 7.4
2017-Sep-18 00:00N 48°11' W 004°48'4 7.3
2017-Sep-17 23:30N 48°15' W 004°49'4 7.4
2017-Sep-17 23:01N 48°18' W 004°48'3 5.6
2017-Sep-17 22:30N 48°21' W 004°48'3 5.9
2017-Sep-17 22:00N 48°24' W 004°49'4 7.5
2017-Sep-17 21:30N 48°28' W 004°50'4 8.5
2017-Sep-17 21:00N 48°32' W 004°50'5 9.4
2017-Sep-17 20:30N 48°37' W 004°49'5 9.9
2017-Sep-17 20:00N 48°42' W 004°48'510.0
2017-Sep-17 19:30N 48°47' W 004°46'  
2017-Sep-10 19:19N 48°51' W 004°52'1 4.3
2017-Sep-10 19:00N 48°49' W 004°52'2 4.6
2017-Sep-10 18:30N 48°47' W 004°51'2 4.9
2017-Sep-10 18:00N 48°45' W 004°51'1 2.6
2017-Sep-10 17:30N 48°43' W 004°51'1 2.5
2017-Sep-10 17:00N 48°42' W 004°52'2 4.0
2017-Sep-10 16:30N 48°40' W 004°51'2 4.6
2017-Sep-10 16:00N 48°38' W 004°51'3 5.3
2017-Sep-10 15:30N 48°35' W 004°51'4 7.0
2017-Sep-10 15:01N 48°32' W 004°51'8 8.2
2017-Sep-10 14:00N 48°24' W 004°49'510.0
2017-Sep-10 13:30N 48°19' W 004°48'4 8.1
2017-Sep-10 13:01N 48°15' W 004°47'4 8.0
2017-Sep-10 12:30N 48°11' W 004°47'4 8.0
2017-Sep-10 12:00N 48°07' W 004°47'4 7.8
2017-Sep-10 11:30N 48°03' W 004°47'4 8.3
2017-Sep-10 11:00N 47°60' W 004°43'4 7.9
2017-Sep-10 10:29N 47°57' W 004°38'4 7.4
2017-Sep-10 10:01N 47°54' W 004°35'8 7.2
2017-Sep-10 08:58N 47°49' W 004°27'6 5.5
2017-Sep-10 07:49N 47°47' W 004°18'  

Dump ship's entire track history